Time;durP1;ratioP1;P1;durP2;ratioP2;P2;SDS_P1;SDS_P2;PMS_P1;PMS_P2;Temp;Humidity;BMP_temperature;BMP_pressure;BME280_temperature;BME280_humidity;BME280_pressure;Samples;Min_cycle;Max_cycle;Signal;HPM_P1;HPM_P2
2023/04/02 00:03:44;;;;;;;0.70;0.70;;;;;;;19.27;39.90;100939.53;16117587;19;132740;-53
2023/04/02 00:09:12;;;;;;;1.10;0.60;;;;;;;19.27;40.12;100953.41;16108857;19;130343;-48
2023/04/02 00:14:35;;;;;;;0.50;0.50;;;;;;;19.22;40.32;100964.38;16106917;19;130009;-48
2023/04/02 00:20:01;;;;;;;1.25;0.63;;;;;;;19.18;40.06;100966.78;16108707;19;130788;-49
2023/04/02 00:25:27;;;;;;;1.15;0.80;;;;;;;19.19;40.07;100973.19;16114369;19;130014;-47
2023/04/02 00:30:53;;;;;;;;;;;;;;;19.14;39.67;100984.19;16110797;19;129757;-50
2023/04/02 00:36:18;;;;;;;1.70;0.88;;;;;;;19.13;39.98;100996.38;16109483;19;131997;-53
2023/04/02 00:41:45;;;;;;;1.17;0.90;;;;;;;19.08;39.73;100997.94;16108425;19;130936;-46
2023/04/02 00:47:26;;;;;;;0.90;0.90;;;;;;;19.06;40.04;101005.69;16109029;19;130013;-48
2023/04/02 00:52:51;;;;;;;1.20;1.10;;;;;;;19.02;40.04;101011.94;16104598;19;131618;-46
2023/04/02 00:58:24;;;;;;;1.77;1.37;;;;;;;19.01;39.73;101026.94;16107315;19;130762;-51
2023/04/02 01:04:00;;;;;;;1.70;0.95;;;;;;;18.98;39.65;101025.47;16110138;19;130383;-48
2023/04/02 01:09:30;;;;;;;;;;;;;;;18.92;39.69;101035.63;16110171;19;130126;-46
2023/04/02 01:14:57;;;;;;;1.42;0.80;;;;;;;18.94;39.62;101043.69;16111286;19;129809;-49
2023/04/02 01:20:37;;;;;;;1.15;0.70;;;;;;;18.91;39.43;101052.50;16108033;19;134303;-50
2023/04/02 01:26:26;;;;;;;1.00;1.00;;;;;;;18.88;39.62;101058.53;16118436;19;131684;-46
2023/04/02 01:31:50;;;;;;;1.30;1.20;;;;;;;18.87;39.44;101068.78;16123303;19;129796;-48
2023/04/02 01:37:45;;;;;;;1.00;1.00;;;;;;;18.85;39.28;101073.72;16122321;19;129794;-46
2023/04/02 01:43:13;;;;;;;0.95;0.85;;;;;;;18.82;39.53;101084.47;16124923;19;130341;-47
2023/04/02 01:48:38;;;;;;;0.90;0.90;;;;;;;18.78;39.05;101095.19;16119327;19;129501;-51
2023/04/02 01:54:03;;;;;;;0.85;0.80;;;;;;;18.76;39.35;101114.84;16117261;19;129704;-51
2023/04/02 01:59:25;;;;;;;0.60;0.60;;;;;;;18.76;39.55;101117.59;16116752;19;129802;-50
2023/04/02 02:04:47;;;;;;;0.70;0.65;;;;;;;18.75;39.54;101135.31;16122004;19;131881;-53
2023/04/02 02:10:15;;;;;;;0.70;0.70;;;;;;;18.73;39.17;101131.94;16119772;19;130864;-48
2023/04/02 02:15:37;;;;;;;1.10;0.70;;;;;;;18.71;39.46;101147.97;16122756;19;129763;-48
2023/04/02 02:21:03;;;;;;;1.10;1.00;;;;;;;18.70;39.31;101156.53;16120488;19;130899;-46
2023/04/02 02:26:27;;;;;;;1.30;1.00;;;;;;;18.67;38.85;101151.47;16120058;19;129021;-49
2023/04/02 02:31:53;;;;;;;1.15;1.05;;;;;;;18.65;38.97;101176.66;16118923;19;131261;-49
2023/04/02 02:37:27;;;;;;;2.38;1.38;;;;;;;18.62;39.01;101185.44;16118377;19;129569;-47
2023/04/02 02:42:56;;;;;;;1.65;1.33;;;;;;;18.61;39.05;101195.69;16120802;19;130314;-52
2023/04/02 02:48:22;;;;;;;1.63;1.02;;;;;;;18.57;38.64;101208.31;16109062;19;130169;-45
2023/04/02 02:53:49;;;;;;;1.60;1.27;;;;;;;18.56;38.59;101214.94;16120922;19;130340;-51
2023/04/02 02:59:14;;;;;;;1.92;1.35;;;;;;;18.53;38.66;101226.50;16112969;19;130560;-47
2023/04/02 03:04:37;;;;;;;1.23;1.10;;;;;;;18.51;38.79;101237.00;16119039;19;129457;-48
2023/04/02 03:10:19;;;;;;;1.60;1.20;;;;;;;18.52;38.52;101257.22;16116674;19;130995;-50
2023/04/02 03:15:56;;;;;;;1.92;1.20;;;;;;;18.50;38.16;101257.47;16119430;19;131279;-46
2023/04/02 03:21:33;;;;;;;1.42;1.20;;;;;;;18.48;38.16;101272.63;16118492;19;129640;-50
2023/04/02 03:27:01;;;;;;;1.52;0.90;;;;;;;18.46;38.35;101279.25;16118183;19;130551;-48
2023/04/02 03:32:32;;;;;;;2.15;1.08;;;;;;;18.46;38.58;101282.00;16114880;19;130421;-48
2023/04/02 03:38:01;;;;;;;1.80;1.30;;;;;;;18.44;38.29;101288.88;16112472;19;131021;-50
2023/04/02 03:43:53;;;;;;;2.85;1.30;;;;;;;18.43;38.09;101314.91;16116502;19;130574;-46
2023/04/02 03:49:26;;;;;;;1.65;1.40;;;;;;;18.42;38.29;101324.28;16113042;19;129843;-47
2023/04/02 03:54:48;;;;;;;2.15;1.83;;;;;;;18.37;38.26;101327.72;16114246;19;129041;-48
2023/04/02 04:00:37;;;;;;;3.85;1.98;;;;;;;18.37;38.28;101349.06;16113617;19;131407;-49
2023/04/02 04:06:09;;;;;;;2.25;2.05;;;;;;;18.34;38.20;101355.06;16113059;19;130594;-49
2023/04/02 04:11:38;;;;;;;2.22;1.80;;;;;;;18.31;37.87;101373.84;16110958;19;129795;-49
2023/04/02 04:17:12;;;;;;;2.08;1.88;;;;;;;18.29;37.83;101372.38;16111528;19;130276;-49
2023/04/02 04:22:34;;;;;;;1.90;1.73;;;;;;;18.27;37.78;101385.63;16112895;19;129620;-48
2023/04/02 04:28:28;;;;;;;2.35;1.70;;;;;;;18.25;38.01;101399.72;16109437;19;130371;-49
2023/04/02 04:34:01;;;;;;;5.03;1.85;;;;;;;18.23;37.83;101398.22;16110436;19;131503;-46
2023/04/02 04:39:49;;;;;;;2.83;1.67;;;;;;;18.23;37.66;101414.84;16112452;19;130405;-50
2023/04/02 04:45:29;;;;;;;1.90;1.70;;;;;;;18.22;37.36;101427.00;16111839;19;129804;-49
2023/04/02 04:51:04;;;;;;;4.32;2.10;;;;;;;18.19;37.69;101433.84;16110976;19;130557;-51
2023/04/02 04:56:29;;;;;;;2.03;1.77;;;;;;;18.16;37.52;101439.84;16109622;19;129823;-46
2023/04/02 05:02:20;;;;;;;5.23;1.90;;;;;;;18.14;37.52;101456.69;16122884;19;129945;-52
2023/04/02 05:07:48;;;;;;;2.15;1.67;;;;;;;18.14;37.60;101483.56;16122108;19;129767;-46
2023/04/02 05:13:35;;;;;;;1.88;1.63;;;;;;;18.15;37.32;101496.31;16122644;19;130869;-51
2023/04/02 05:19:12;;;;;;;1.50;1.40;;;;;;;18.14;37.61;101500.16;16121200;19;130986;-49
2023/04/02 05:24:53;;;;;;;4.80;1.60;;;;;;;18.13;37.51;101510.38;16120375;19;131022;-48
2023/04/02 05:30:27;;;;;;;6.20;1.73;;;;;;;18.18;37.34;101531.00;16123044;19;130685;-50
2023/04/02 05:35:56;;;;;;;3.47;1.42;;;;;;;18.19;37.58;101535.47;16124422;19;130951;-49
2023/04/02 05:41:37;;;;;;;9.40;1.60;;;;;;;18.25;37.58;101543.72;16132901;19;129465;-53
2023/04/02 05:47:23;;;;;;;2.05;1.38;;;;;;;18.47;37.76;101559.94;16124043;19;129613;-50
2023/04/02 05:52:50;;;;;;;3.10;1.80;;;;;;;18.80;37.33;101564.22;16120268;19;129721;-43
2023/04/02 05:58:23;;;;;;;3.70;1.90;;;;;;;19.16;37.55;101567.19;16125121;19;130101;-47
2023/04/02 06:03:56;;;;;;;5.65;1.80;;;;;;;19.37;36.88;101577.81;16122384;19;129604;-49
2023/04/02 06:09:45;;;;;;;4.13;2.15;;;;;;;19.49;36.32;101596.44;16119663;19;130291;-48
2023/04/02 06:15:14;;;;;;;7.07;2.42;;;;;;;19.52;36.46;101605.13;16119337;19;129664;-51
2023/04/02 06:20:36;;;;;;;4.63;1.90;;;;;;;19.46;36.12;101622.72;16118640;19;131124;-48
2023/04/02 06:26:14;;;;;;;8.90;2.40;;;;;;;19.42;35.65;101640.09;16117597;19;129592;-49
2023/04/02 06:31:41;;;;;;;4.72;1.80;;;;;;;19.29;35.45;101630.84;16117440;19;131879;-53
2023/04/02 06:37:27;;;;;;;4.93;2.00;;;;;;;19.19;35.72;101638.84;16116532;19;130116;-56
2023/04/02 06:42:55;;;;;;;4.07;1.80;;;;;;;19.07;35.78;101656.28;16112798;19;130152;-50
2023/04/02 06:48:19;;;;;;;3.08;1.58;;;;;;;19.00;35.42;101676.84;16114357;19;132683;-48
2023/04/02 06:53:47;;;;;;;4.32;1.85;;;;;;;18.94;35.47;101684.16;16111540;19;129450;-50
2023/04/02 06:59:11;;;;;;;3.40;1.75;;;;;;;18.87;35.66;101694.44;16118348;19;130938;-49
2023/04/02 07:04:33;;;;;;;2.85;1.80;;;;;;;18.81;35.90;101703.69;16117989;19;129716;-48
2023/04/02 07:09:56;;;;;;;3.33;1.80;;;;;;;18.74;35.80;101715.69;16114712;19;131838;-50
2023/04/02 07:15:18;;;;;;;3.53;1.70;;;;;;;18.69;36.00;101734.94;16117559;19;129512;-48
2023/04/02 07:20:41;;;;;;;4.07;1.95;;;;;;;18.65;36.01;101744.78;16116957;19;129517;-50
2023/04/02 07:26:05;;;;;;;2.88;1.50;;;;;;;18.68;35.73;101749.88;16116917;19;131527;-51
2023/04/02 07:31:27;;;;;;;5.03;1.75;;;;;;;18.77;35.41;101751.28;16115343;19;131714;-52
2023/04/02 07:36:49;;;;;;;3.42;1.25;;;;;;;18.88;35.57;101755.25;16114744;19;129829;-47
2023/04/02 07:42:11;;;;;;;1.92;1.35;;;;;;;19.01;35.41;101764.50;16110254;19;129634;-50
2023/04/02 07:47:33;;;;;;;1.75;1.30;;;;;;;19.12;35.49;101777.63;16119756;19;129530;-51
2023/04/02 07:52:55;;;;;;;3.35;1.20;;;;;;;19.24;34.96;101786.03;16115365;19;129324;-49
2023/04/02 07:58:17;;;;;;;4.32;1.70;;;;;;;19.34;35.13;101797.44;16118737;19;129831;-49
2023/04/02 08:03:40;;;;;;;1.92;1.10;;;;;;;19.42;34.87;101803.81;16113964;19;129326;-47
2023/04/02 08:09:02;;;;;;;3.28;1.30;;;;;;;19.49;35.05;101815.66;16115893;19;130604;-48
2023/04/02 08:14:24;;;;;;;2.17;1.40;;;;;;;19.52;34.92;101831.84;16114602;19;131225;-48
2023/04/02 08:19:46;;;;;;;2.20;1.20;;;;;;;19.51;34.85;101850.41;16115449;19;129412;-53
2023/04/02 08:25:16;;;;;;;1.98;1.20;;;;;;;19.49;34.87;101860.06;16115162;19;130904;-51
2023/04/02 08:30:38;;;;;;;3.50;1.40;;;;;;;19.42;34.30;101862.91;16115477;19;129204;-53
2023/04/02 08:36:00;;;;;;;2.55;1.27;;;;;;;19.36;34.49;101884.09;16114922;19;129392;-49
2023/04/02 08:41:27;;;;;;;1.80;1.20;;;;;;;19.30;34.67;101890.56;16111088;19;131509;-51
2023/04/02 08:47:04;;;;;;;1.88;1.15;;;;;;;19.25;34.44;101908.97;16109122;19;129434;-48
2023/04/02 08:52:31;;;;;;;1.77;1.20;;;;;;;19.16;34.31;101914.75;16109587;19;129757;-49
2023/04/02 08:58:44;;;;;;;1.35;0.93;;;;;;;19.10;34.35;101923.13;16111524;19;130177;-49
2023/04/02 09:04:15;;;;;;;3.28;1.25;;;;;;;19.03;34.45;101926.81;16108976;19;129821;-51
2023/04/02 09:09:37;;;;;;;3.78;1.48;;;;;;;18.99;34.30;101949.69;16109059;19;130687;-52
2023/04/02 09:15:28;;;;;;;2.35;1.10;;;;;;;18.93;34.25;101968.06;16110568;19;130431;-46
2023/04/02 09:20:50;;;;;;;2.00;1.20;;;;;;;18.89;34.44;101977.88;16110995;19;129724;-55
2023/04/02 09:26:28;;;;;;;1.55;0.85;;;;;;;18.98;33.79;101973.78;16109820;19;129070;-46
2023/04/02 09:32:01;;;;;;;1.65;0.85;;;;;;;19.16;33.51;101973.00;16110208;19;130065;-53
2023/04/02 09:37:24;;;;;;;3.22;1.23;;;;;;;19.39;33.72;101988.22;16107958;19;131402;-47
2023/04/02 09:42:46;;;;;;;2.70;1.23;;;;;;;19.63;33.42;102005.97;16112785;19;131766;-49
2023/04/02 09:48:29;;;;;;;2.47;1.10;;;;;;;19.86;32.94;102023.91;16123133;19;130037;-47
2023/04/02 09:54:07;;;;;;;2.72;0.80;;;;;;;20.05;32.88;102021.22;16126670;19;129574;-47
2023/04/02 09:59:29;;;;;;;1.88;0.75;;;;;;;20.13;32.52;102026.47;16125731;19;128983;-49
2023/04/02 10:04:51;;;;;;;2.80;0.98;;;;;;;20.14;32.93;102028.16;16124505;19;130210;-50
2023/04/02 10:10:21;;;;;;;2.63;0.80;;;;;;;20.11;32.72;102039.72;16121708;19;129435;-50
2023/04/02 10:16:15;;;;;;;1.65;0.80;;;;;;;20.05;32.62;102051.78;16121452;19;130058;-49
2023/04/02 10:21:39;;;;;;;2.25;0.93;;;;;;;19.94;33.02;102065.28;16121351;19;129698;-51
2023/04/02 10:27:16;;;;;;;1.65;0.98;;;;;;;19.82;32.74;102069.88;16123402;19;134128;-50
2023/04/02 10:32:49;;;;;;;3.05;0.90;;;;;;;19.69;33.00;102085.56;16123741;19;131394;-49
2023/04/02 10:38:26;;;;;;;2.08;0.90;;;;;;;19.56;33.14;102099.56;16121640;19;130513;-48
2023/04/02 10:43:57;;;;;;;8.43;1.20;;;;;;;19.45;33.04;102103.91;16120948;19;130997;-48
2023/04/02 10:49:48;;;;;;;1.77;0.90;;;;;;;19.35;33.03;102109.94;16117412;19;129798;-46
2023/04/02 10:55:21;;;;;;;1.70;0.90;;;;;;;19.27;33.27;102120.44;16116504;19;129382;-49
2023/04/02 11:00:44;;;;;;;3.28;1.33;;;;;;;19.16;32.69;102125.56;16116554;19;130260;-50
2023/04/02 11:06:25;;;;;;;2.22;0.88;;;;;;;19.10;32.54;102133.91;16115453;19;131382;-51
2023/04/02 11:11:54;;;;;;;2.58;0.85;;;;;;;19.02;32.63;102154.44;16117829;19;129748;-52
2023/04/02 11:17:19;;;;;;;2.67;1.00;;;;;;;19.04;32.65;102153.16;16123889;19;132574;-51
2023/04/02 11:22:41;;;;;;;1.23;0.63;;;;;;;19.14;32.74;102174.03;16117900;19;131890;-49
2023/04/02 11:28:29;;;;;;;2.47;1.00;;;;;;;19.28;32.46;102175.72;16118775;19;130740;-47
2023/04/02 11:33:52;;;;;;;2.30;1.20;;;;;;;19.38;32.30;102187.19;16114337;19;130117;-50
2023/04/02 11:40:05;;;;;;;0.80;0.60;;;;;;;19.51;32.03;102188.19;16113325;19;129587;-52
2023/04/02 11:45:27;;;;;;;1.20;0.68;;;;;;;19.58;32.02;102191.78;16103928;19;131642;-52
2023/04/02 11:50:49;;;;;;;5.13;0.82;;;;;;;19.67;32.31;102201.56;16104827;19;129730;-51
2023/04/02 11:56:41;;;;;;;1.92;0.90;;;;;;;19.73;31.78;102212.84;16105518;19;131352;-52
2023/04/02 12:02:18;;;;;;;2.05;0.70;;;;;;;19.69;31.96;102216.06;16105308;19;131524;-47
2023/04/02 12:07:55;;;;;;;2.05;0.73;;;;;;;19.65;32.09;102223.16;16107751;19;129776;-52
2023/04/02 12:13:40;;;;;;;12.65;1.40;;;;;;;19.55;32.19;102236.66;16106132;19;131338;-52
2023/04/02 12:19:07;;;;;;;14.05;1.35;;;;;;;19.50;32.88;102236.44;16098352;19;130724;-44
2023/04/02 12:24:30;;;;;;;9.05;2.75;;;;;;;19.41;32.98;102246.94;16111340;19;129633;-45
2023/04/02 12:30:11;;;;;;;5.20;1.00;;;;;;;19.32;32.75;102254.66;16114649;19;131816;-44
2023/04/02 12:35:35;;;;;;;5.07;1.35;;;;;;;19.22;32.97;102262.59;16110725;19;130103;-44
2023/04/02 12:41:00;;;;;;;4.72;1.10;;;;;;;19.15;33.00;102254.25;16115251;19;129429;-47
2023/04/02 12:46:24;;;;;;;6.33;1.00;;;;;;;19.07;32.76;102272.00;16118392;19;130362;-44
2023/04/02 12:51:47;;;;;;;3.40;1.00;;;;;;;19.02;33.00;102277.34;16116005;19;129496;-43
2023/04/02 12:57:24;;;;;;;3.60;1.13;;;;;;;18.98;32.77;102284.38;16114788;19;130864;-43
2023/04/02 13:02:50;;;;;;;3.72;1.13;;;;;;;;;;16111509;19;129371;-44
2023/04/02 13:08:21;;;;;;;3.70;1.00;;;;;;;18.87;32.99;102293.34;16115321;19;129379;-44
2023/04/02 13:13:45;;;;;;;4.53;1.20;;;;;;;18.82;33.38;102298.69;16111725;19;129314;-45
2023/04/02 13:19:26;;;;;;;2.60;1.00;;;;;;;18.76;33.30;102301.25;16112265;19;129672;-49
2023/04/02 13:24:48;;;;;;;3.33;0.93;;;;;;;18.73;33.34;102301.66;16127900;19;129789;-44
2023/04/02 13:30:21;;;;;;;2.35;0.90;;;;;;;18.74;33.20;102297.00;16127065;19;131539;-46
2023/04/02 13:35:43;;;;;;;4.20;1.10;;;;;;;18.71;33.07;102292.72;16122659;19;131147;-43
2023/04/02 13:41:11;;;;;;;5.75;0.70;;;;;;;18.73;33.20;102301.66;16124893;19;131356;-45
2023/04/02 13:46:34;;;;;;;2.75;0.90;;;;;;;18.75;33.20;102304.25;16123739;19;130166;-44
2023/04/02 13:51:59;;;;;;;5.30;1.00;;;;;;;18.74;33.17;102316.41;16125315;19;133890;-46
2023/04/02 13:57:21;;;;;;;11.03;1.27;;;;;;;18.72;32.81;102324.91;16125638;19;129767;-43
2023/04/02 14:03:06;;;;;;;34.58;2.05;;;;;;;18.73;32.88;102325.78;16123013;19;129900;-48
2023/04/02 14:08:28;;;;;;;27.15;2.83;;;;;;;18.70;32.83;102340.06;16119233;19;130870;-46
2023/04/02 14:14:20;;;;;;;59.17;3.15;;;;;;;18.75;33.08;102352.22;16114560;19;130257;-41
2023/04/02 14:19:56;;;;;;;33.55;2.10;;;;;;;18.88;33.02;102354.16;16114744;19;130110;-46
2023/04/02 14:25:24;;;;;;;24.55;2.30;;;;;;;19.07;32.80;102366.31;16121712;19;130604;-42
2023/04/02 14:31:05;;;;;;;29.63;2.67;;;;;;;19.41;32.64;102368.22;16122622;19;130500;-43
2023/04/02 14:36:30;;;;;;;18.90;1.40;;;;;;;19.67;32.36;102379.25;16119271;19;129719;-43
2023/04/02 14:42:27;;;;;;;21.80;1.65;;;;;;;19.94;32.12;102379.13;16122809;19;129762;-42
2023/04/02 14:47:56;;;;;;;19.58;1.75;;;;;;;20.13;31.74;102384.88;16119893;19;129586;-41
2023/04/02 14:53:36;;;;;;;11.85;1.17;;;;;;;20.23;31.56;102388.03;16121171;19;129792;-43
2023/04/02 14:59:35;;;;;;;9.23;1.63;;;;;;;20.23;31.30;102384.41;16121072;19;129444;-43
2023/04/02 15:05:02;;;;;;;12.85;1.45;;;;;;;20.16;31.40;102381.66;16120904;19;130510;-42
2023/04/02 15:10:30;;;;;;;12.63;1.20;;;;;;;20.07;31.48;102382.97;16114892;19;129379;-43
2023/04/02 15:15:57;;;;;;;13.05;1.65;;;;;;;19.95;31.42;102403.06;16116081;19;129683;-44
2023/04/02 15:21:19;;;;;;;8.63;1.33;;;;;;;19.83;31.77;102411.25;16119195;19;130811;-45
2023/04/02 15:27:28;;;;;;;7.63;1.40;;;;;;;19.74;31.77;102408.91;16114996;19;130036;-45
2023/04/02 15:32:53;;;;;;;3.63;0.80;;;;;;;19.60;31.79;102411.72;16105711;19;131074;-45
2023/04/02 15:38:29;;;;;;;5.78;1.02;;;;;;;19.49;31.85;102415.16;16106879;19;130058;-43
2023/04/02 15:44:12;;;;;;;8.82;1.02;;;;;;;19.41;31.45;102418.16;16106031;19;130957;-45
2023/04/02 15:50:03;;;;;;;5.25;0.70;;;;;;;19.33;31.54;102406.19;16104937;19;130994;-44
2023/04/02 15:55:44;;;;;;;8.68;0.80;;;;;;;19.26;31.58;102419.25;16104389;19;130074;-46
2023/04/02 16:01:34;;;;;;;5.90;0.82;;;;;;;19.21;31.75;102417.13;16109572;19;130830;-44
2023/04/02 16:07:04;;;;;;;7.05;1.15;;;;;;;19.22;31.26;102421.59;16110994;19;130823;-45
2023/04/02 16:12:29;;;;;;;7.50;0.93;;;;;;;19.23;31.85;102427.97;16113232;19;130172;-43
2023/04/02 16:18:00;;;;;;;4.17;0.87;;;;;;;19.26;31.35;102438.66;16114126;19;131225;-44
2023/04/02 16:23:34;;;;;;;3.60;0.95;;;;;;;19.30;31.20;102434.41;16116631;19;130215;-44
2023/04/02 16:29:11;;;;;;;7.90;0.73;;;;;;;19.35;31.06;102442.09;16113255;19;129437;-44
2023/04/02 16:34:54;;;;;;;10.73;1.00;;;;;;;19.38;30.91;102436.94;16117375;19;130618;-45
2023/04/02 16:40:45;;;;;;;3.13;0.80;;;;;;;19.56;30.59;102454.88;16116277;19;129524;-45
2023/04/02 16:46:21;;;;;;;2.72;1.00;;;;;;;19.72;30.77;102455.47;16112825;19;131213;-44
2023/04/02 16:52:23;;;;;;;3.08;0.95;;;;;;;19.78;30.46;102468.50;16116927;19;130171;-43
2023/04/02 16:57:59;;;;;;;6.00;0.67;;;;;;;19.72;30.56;102474.91;16126133;19;130612;-43
2023/04/02 17:03:53;;;;;;;5.32;0.80;;;;;;;19.64;30.86;102474.06;16126355;19;131598;-43
2023/04/02 17:09:49;;;;;;;2.65;0.90;;;;;;;19.57;30.80;102489.03;16120578;19;129811;-45
2023/04/02 17:15:20;;;;;;;7.78;0.82;;;;;;;19.48;31.25;102497.59;16122867;19;130813;-44
2023/04/02 17:20:49;;;;;;;7.95;0.73;;;;;;;19.41;31.31;102506.97;16125089;19;130560;-42
2023/04/02 17:26:13;;;;;;;4.65;0.70;;;;;;;19.33;31.45;102517.19;16125376;19;130412;-44
2023/04/02 17:31:36;;;;;;;5.95;0.77;;;;;;;19.21;31.73;102510.56;16125191;19;129371;-46
2023/04/02 17:37:52;;;;;;;2.42;0.90;;;;;;;19.24;31.52;102521.25;16118812;19;130207;-43
2023/04/02 17:43:56;;;;;;;4.03;0.60;;;;;;;19.28;31.56;102525.31;16108976;19;129687;-42
2023/04/02 17:49:39;;;;;;;3.60;0.57;;;;;;;19.27;31.75;102531.06;16107504;19;130980;-43
2023/04/02 17:55:26;;;;;;;1.30;0.43;;;;;;;19.24;32.17;102546.22;16113349;19;131485;-44
2023/04/02 18:01:05;;;;;;;3.78;1.05;;;;;;;19.23;32.02;102555.63;16109119;19;130107;-44
2023/04/02 18:06:37;;;;;;;3.05;0.50;;;;;;;19.36;31.95;102572.28;16112249;19;129757;-45
2023/04/02 18:12:11;;;;;;;2.35;0.50;;;;;;;19.61;32.22;102574.44;16114754;19;129839;-45
2023/04/02 18:17:36;;;;;;;2.35;0.70;;;;;;;19.91;32.09;102584.25;16120114;19;130642;-44
2023/04/02 18:23:20;;;;;;;2.90;0.70;;;;;;;20.20;31.88;102591.31;16119452;19;131912;-45
2023/04/02 18:28:49;;;;;;;6.63;0.50;;;;;;;20.43;31.75;102598.34;16122105;19;131731;-47
2023/04/02 18:34:13;;;;;;;2.13;0.70;;;;;;;20.55;31.56;102606.84;16119582;19;130793;-46
2023/04/02 18:40:10;;;;;;;20.17;1.00;;;;;;;20.58;31.56;102618.38;16117729;19;131043;-44
2023/04/02 18:45:37;;;;;;;2.88;0.60;;;;;;;20.60;32.00;102616.25;16117403;19;129544;-44
2023/04/02 18:51:00;;;;;;;12.60;1.17;;;;;;;20.53;32.54;102620.09;16119941;19;130230;-46
2023/04/02 18:56:24;;;;;;;16.25;1.67;;;;;;;20.43;33.24;102628.91;16119485;19;129674;-44
2023/04/02 19:01:50;;;;;;;11.40;1.20;;;;;;;20.38;33.19;102642.59;16119230;19;129696;-44
2023/04/02 19:07:17;;;;;;;5.47;1.10;;;;;;;20.34;33.70;102649.66;16120174;19;130012;-43
2023/04/02 19:12:39;;;;;;;5.95;0.93;;;;;;;20.43;33.74;102662.28;16122150;19;129980;-45
2023/04/02 19:18:17;;;;;;;3.30;1.00;;;;;;;20.68;33.81;102665.22;16115585;19;129234;-44
2023/04/02 19:23:41;;;;;;;9.40;0.95;;;;;;;20.96;33.57;102671.56;16114563;19;129663;-44
2023/04/02 19:29:27;;;;;;;7.23;0.90;;;;;;;21.20;33.60;102675.53;16116060;19;129348;-43
2023/04/02 19:35:34;;;;;;;4.32;0.80;;;;;;;21.30;33.35;102675.91;16115369;19;130066;-44
2023/04/02 19:41:02;;;;;;;6.50;1.13;;;;;;;21.34;33.34;102687.44;16118493;19;131176;-47
2023/04/02 19:46:25;;;;;;;12.68;1.08;;;;;;;21.29;33.82;102679.78;16113443;19;129833;-42
2023/04/02 19:51:48;;;;;;;25.25;2.38;;;;;;;21.21;34.21;102689.22;16116631;19;130707;-46
2023/04/02 19:57:14;;;;;;;12.30;1.27;;;;;;;21.13;33.89;102695.03;16118264;19;132061;-46
2023/04/02 20:02:36;;;;;;;11.10;1.67;;;;;;;21.02;34.25;102696.56;16121983;19;130268;-50
2023/04/02 20:07:58;;;;;;;5.25;1.25;;;;;;;20.93;34.55;102706.25;16115144;19;129003;-45
2023/04/02 20:13:20;;;;;;;16.02;1.75;;;;;;;20.83;34.16;102703.91;16117746;19;131054;-45
2023/04/02 20:18:41;;;;;;;13.75;1.60;;;;;;;20.71;34.40;102706.50;16113427;19;129634;-46
2023/04/02 20:24:05;;;;;;;13.70;1.40;;;;;;;20.57;34.46;102711.22;16098202;19;129742;-50
2023/04/02 20:29:29;;;;;;;9.63;1.52;;;;;;;20.43;34.27;102723.44;16087321;19;130450;-46
2023/04/02 20:34:53;;;;;;;12.00;2.22;;;;;;;20.33;34.08;102726.63;16098445;19;130368;-45
2023/04/02 20:40:15;;;;;;;13.70;1.90;;;;;;;20.21;34.51;102729.19;16099454;19;130214;-47
2023/04/02 20:45:37;;;;;;;8.90;2.10;;;;;;;20.11;34.62;102737.97;16114597;19;131733;-49
2023/04/02 20:51:01;;;;;;;8.05;2.08;;;;;;;20.02;34.27;102743.94;16113804;19;130428;-49
2023/04/02 20:56:23;;;;;;;14.60;2.50;;;;;;;19.92;34.52;102747.97;16111626;19;130075;-50
2023/04/02 21:01:45;;;;;;;9.20;2.38;;;;;;;19.83;34.53;102754.75;16114688;19;130390;-52
2023/04/02 21:07:07;;;;;;;9.20;1.85;;;;;;;19.75;34.40;102766.06;16111160;19;130160;-50
2023/04/02 21:12:30;;;;;;;9.88;1.83;;;;;;;19.66;34.38;102769.03;16111486;19;129559;-52
2023/04/02 21:17:51;;;;;;;5.50;1.55;;;;;;;19.58;34.86;102774.75;16111058;19;131319;-50
2023/04/02 21:23:13;;;;;;;8.30;1.60;;;;;;;19.51;34.60;102773.88;16108330;19;130026;-52
2023/04/02 21:28:35;;;;;;;7.93;1.75;;;;;;;19.44;34.80;102784.97;16107525;19;130467;-47
2023/04/02 21:33:58;;;;;;;6.43;1.85;;;;;;;19.38;34.83;102775.53;16111546;19;129366;-47
2023/04/02 21:39:22;;;;;;;7.18;1.30;;;;;;;19.32;34.64;102779.13;16106566;19;129527;-47
2023/04/02 21:44:44;;;;;;;5.38;1.42;;;;;;;19.27;35.11;102778.91;16124871;19;129847;-47
2023/04/02 21:50:06;;;;;;;5.30;1.25;;;;;;;19.21;34.84;102774.16;16122034;19;131754;-47
2023/04/02 21:55:28;;;;;;;5.03;1.40;;;;;;;19.17;35.09;102779.25;16123312;19;129314;-45
2023/04/02 22:00:50;;;;;;;5.35;1.40;;;;;;;19.14;35.22;102795.44;16119763;19;130511;-52
2023/04/02 22:06:15;;;;;;;2.35;0.90;;;;;;;19.10;35.16;102796.91;16119861;19;130021;-49
2023/04/02 22:11:43;;;;;;;5.38;1.50;;;;;;;19.04;35.28;102807.78;16117387;19;129769;-49
2023/04/02 22:17:06;;;;;;;3.13;1.20;;;;;;;18.99;35.35;102810.28;16122550;19;131675;-47
2023/04/02 22:22:28;;;;;;;4.57;1.20;;;;;;;18.95;35.38;102806.22;16120225;19;130633;-47
2023/04/02 22:27:50;;;;;;;3.05;0.98;;;;;;;18.90;35.26;102801.25;16117091;19;129280;-46
2023/04/02 22:33:12;;;;;;;4.25;1.15;;;;;;;18.87;34.93;102800.81;16125268;19;129554;-47
2023/04/02 22:38:35;;;;;;;4.03;1.08;;;;;;;18.83;35.30;102799.53;16122263;19;129565;-47
2023/04/02 22:43:58;;;;;;;3.35;1.13;;;;;;;18.80;35.17;102805.47;16122083;19;130772;-45
2023/04/02 22:49:20;;;;;;;2.42;0.88;;;;;;;18.76;35.21;102811.41;16123276;19;130426;-48
2023/04/02 22:54:42;;;;;;;2.70;0.70;;;;;;;18.73;35.13;102811.78;16119611;19;130141;-45
2023/04/02 23:00:08;;;;;;;2.00;0.98;;;;;;;18.71;35.22;102811.13;16121443;19;129777;-47
2023/04/02 23:24:39;;;;;;;3.08;0.90;;;;;;;18.53;35.15;102824.63;16122342;19;129758;-45
2023/04/02 23:30:01;;;;;;;1.75;0.75;;;;;;;18.52;35.34;102822.91;16117175;19;129785;-45
2023/04/02 23:35:23;;;;;;;1.77;0.95;;;;;;;18.51;35.10;102821.19;16119858;19;129838;-50
2023/04/02 23:40:45;;;;;;;1.10;0.70;;;;;;;18.48;35.14;102825.25;16114297;19;129577;-47
2023/04/02 23:46:07;;;;;;;1.42;0.80;;;;;;;18.45;35.35;102826.50;16116194;19;131416;-50
2023/04/02 23:51:31;;;;;;;1.52;0.77;;;;;;;18.43;35.00;102836.94;16116125;19;129499;-46
2023/04/02 23:56:52;;;;;;;2.05;0.80;;;;;;;18.42;35.12;102839.88;16113242;19;131838;-51
